createdAt,value
2022-08-08T00:00:52.539Z,1.50
2022-08-08T00:03:32.546Z,1.77
2022-08-08T00:06:28.451Z,1.80
2022-08-08T00:09:22.289Z,1.70
2022-08-08T00:12:29.604Z,1.60
2022-08-08T00:15:55.736Z,2.20
2022-08-08T00:18:33.676Z,2.10
2022-08-08T00:21:23.212Z,2.42
2022-08-08T00:24:07.583Z,2.28
2022-08-08T00:26:58.772Z,2.30
2022-08-08T00:29:55.796Z,1.90
2022-08-08T00:32:53.108Z,2.10
2022-08-08T00:36:08.426Z,2.25
2022-08-08T00:41:06.795Z,1.83
2022-08-08T00:42:42.538Z,1.90
2022-08-08T00:46:01.412Z,1.80
2022-08-08T00:49:02.072Z,1.80
2022-08-08T00:52:20.101Z,1.83
2022-08-08T00:55:22.098Z,2.05
2022-08-08T00:58:36.700Z,1.98
2022-08-08T01:01:44.014Z,2.17
2022-08-08T01:04:36.844Z,2.28
2022-08-08T01:07:55.310Z,2.17
2022-08-08T01:10:57.991Z,2.38
2022-08-08T01:14:16.188Z,3.90
2022-08-08T01:17:35.036Z,4.53
2022-08-08T01:21:07.878Z,3.53
2022-08-08T01:24:43.601Z,2.95
2022-08-08T01:28:00.266Z,3.47
2022-08-08T01:32:15.258Z,4.20
2022-08-08T01:34:36.465Z,3.45
2022-08-08T01:37:59.234Z,3.30
2022-08-08T01:41:17.032Z,2.90
2022-08-08T01:44:26.674Z,2.38
2022-08-08T01:48:14.090Z,2.63
2022-08-08T01:50:38.379Z,1.95
2022-08-08T01:55:15.593Z,1.77
2022-08-08T01:56:59.809Z,1.80
2022-08-08T02:00:27.873Z,1.75
2022-08-08T02:03:55.985Z,1.80
2022-08-08T02:06:59.719Z,1.70
2022-08-08T02:10:04.205Z,1.90
2022-08-08T02:13:54.141Z,1.60
2022-08-08T02:16:44.949Z,1.42
2022-08-08T02:20:07.685Z,1.80
2022-08-08T02:22:55.359Z,1.67
2022-08-08T02:25:53.774Z,1.45
2022-08-08T02:29:14.950Z,1.67
2022-08-08T02:32:07.211Z,1.90
2022-08-08T02:35:07.833Z,1.70
2022-08-08T02:38:25.068Z,1.85
2022-08-08T02:41:59.657Z,1.55
2022-08-08T02:44:56.918Z,1.40
2022-08-08T02:47:55.000Z,1.88
2022-08-08T02:50:55.791Z,1.50
2022-08-08T02:54:30.317Z,1.80
2022-08-08T02:57:40.509Z,1.70
2022-08-08T03:01:14.872Z,1.70
2022-08-08T03:05:03.999Z,2.00
2022-08-08T03:07:58.598Z,2.00
2022-08-08T03:11:07.488Z,1.98
2022-08-08T03:16:03.867Z,1.95
2022-08-08T03:17:39.208Z,2.10
2022-08-08T03:20:18.403Z,1.92
2022-08-08T03:23:04.673Z,2.28
2022-08-08T03:25:51.042Z,2.20
2022-08-08T03:28:51.307Z,1.70
2022-08-08T03:32:05.293Z,2.00
2022-08-08T03:34:44.824Z,1.80
2022-08-08T03:38:54.565Z,2.35
2022-08-08T03:40:51.738Z,2.10
2022-08-08T03:43:38.417Z,1.85
2022-08-08T03:46:20.754Z,2.25
2022-08-08T03:52:44.581Z,2.13
2022-08-08T03:55:57.221Z,2.17
2022-08-08T03:58:47.764Z,1.95
2022-08-08T04:01:27.732Z,2.10
2022-08-08T04:04:31.403Z,1.88
2022-08-08T04:07:11.708Z,2.38
2022-08-08T04:10:02.892Z,2.50
2022-08-08T04:12:46.332Z,2.40
2022-08-08T04:15:30.452Z,2.80
2022-08-08T04:18:18.473Z,3.10
2022-08-08T04:21:06.350Z,2.38
2022-08-08T04:24:05.877Z,2.05
2022-08-08T04:26:57.095Z,2.20
2022-08-08T04:29:38.920Z,2.42
2022-08-08T04:32:35.680Z,2.67
2022-08-08T04:35:17.250Z,2.72
2022-08-08T04:37:58.696Z,2.42
2022-08-08T04:40:51.797Z,2.47
2022-08-08T04:43:31.830Z,2.50
2022-08-08T04:46:30.913Z,2.85
2022-08-08T04:49:11.433Z,2.70
2022-08-08T04:51:57.658Z,2.88
2022-08-08T04:54:42.427Z,2.58
2022-08-08T04:57:18.658Z,2.38
2022-08-08T05:00:02.694Z,2.40
2022-08-08T05:02:45.730Z,2.03
2022-08-08T05:08:28.739Z,1.80
2022-08-08T05:11:23.881Z,1.77
2022-08-08T05:14:02.417Z,1.70
2022-08-08T05:17:01.426Z,1.77
2022-08-08T05:20:12.687Z,1.60
2022-08-08T05:22:50.334Z,1.70
2022-08-08T05:25:53.808Z,1.70
2022-08-08T05:28:55.779Z,1.70
2022-08-08T05:32:03.111Z,1.75
2022-08-08T05:34:54.646Z,1.55
2022-08-08T05:37:53.385Z,1.60
2022-08-08T05:40:58.210Z,1.33
2022-08-08T05:43:39.950Z,1.50
2022-08-08T05:46:36.007Z,1.60
2022-08-08T05:49:22.077Z,1.83
2022-08-08T05:52:06.001Z,1.50
2022-08-08T05:54:50.317Z,1.60
2022-08-08T05:58:05.417Z,1.98
2022-08-08T06:00:34.478Z,2.28
2022-08-08T06:03:25.416Z,1.30
2022-08-08T06:06:10.647Z,1.70
2022-08-08T06:08:54.918Z,1.63
2022-08-08T06:11:49.111Z,1.23
2022-08-08T06:14:32.887Z,1.35
2022-08-08T06:20:13.733Z,1.73
2022-08-08T06:22:52.620Z,2.47
2022-08-08T06:25:58.914Z,2.28
2022-08-08T06:28:55.667Z,1.75
2022-08-08T06:32:09.281Z,1.60
2022-08-08T06:35:11.938Z,1.55
2022-08-08T06:38:01.658Z,1.20
2022-08-08T06:40:48.293Z,1.50
2022-08-08T06:43:21.130Z,1.20
2022-08-08T06:46:16.982Z,1.05
2022-08-08T06:48:59.742Z,1.40
2022-08-08T06:51:46.921Z,1.35
2022-08-08T06:54:32.474Z,1.48
2022-08-08T06:57:06.330Z,1.27
2022-08-08T07:00:10.538Z,1.15
2022-08-08T07:03:19.359Z,1.20
2022-08-08T07:06:02.123Z,1.17
2022-08-08T07:08:55.324Z,1.20
2022-08-08T07:11:46.271Z,1.23
2022-08-08T07:14:42.365Z,1.17
2022-08-08T07:17:40.144Z,1.00
2022-08-08T07:20:50.547Z,1.30
2022-08-08T07:24:01.263Z,1.45
2022-08-08T07:26:53.863Z,1.30
2022-08-08T07:30:02.489Z,1.13
2022-08-08T07:32:53.721Z,1.30
2022-08-08T07:35:36.667Z,1.30
2022-08-08T07:41:23.380Z,1.02
2022-08-08T07:44:33.636Z,1.75
2022-08-08T07:47:19.036Z,1.25
2022-08-08T07:50:25.363Z,1.88
2022-08-08T07:53:07.595Z,1.90
2022-08-08T07:55:54.567Z,1.65
2022-08-08T07:58:33.701Z,1.10
2022-08-08T08:01:16.038Z,1.60
2022-08-08T08:04:35.947Z,1.30
2022-08-08T08:07:32.307Z,1.70
2022-08-08T08:10:30.575Z,1.40
2022-08-08T08:14:07.670Z,1.08
2022-08-08T08:16:51.727Z,0.95
2022-08-08T08:19:45.906Z,1.20
2022-08-08T08:22:27.927Z,1.23
2022-08-08T08:25:42.520Z,1.20
2022-08-08T08:28:29.170Z,1.10
2022-08-08T08:31:17.553Z,1.20
2022-08-08T08:33:53.235Z,1.10
2022-08-08T08:36:26.568Z,1.10
2022-08-08T08:39:17.647Z,1.10
2022-08-08T08:42:02.877Z,1.00
2022-08-08T08:44:41.839Z,1.10
2022-08-08T08:47:27.355Z,1.20
2022-08-08T08:50:33.879Z,1.20
2022-08-08T08:53:27.853Z,1.40
2022-08-08T08:56:26.281Z,0.98
2022-08-08T08:59:30.602Z,1.25
2022-08-08T09:02:24.688Z,1.10
2022-08-08T09:05:49.098Z,1.10
2022-08-08T09:08:29.853Z,1.52
2022-08-08T09:11:18.680Z,1.08
2022-08-08T09:13:55.018Z,1.08
2022-08-08T09:16:45.285Z,0.93
2022-08-08T09:21:59.393Z,0.93
2022-08-08T09:22:42.278Z,1.10
2022-08-08T09:25:22.840Z,1.20
2022-08-08T09:28:31.610Z,1.25
2022-08-08T09:31:56.071Z,1.10
2022-08-08T09:34:50.414Z,0.82
2022-08-08T09:38:01.218Z,0.88
2022-08-08T09:40:55.593Z,1.25
2022-08-08T09:44:06.413Z,0.90
2022-08-08T09:47:05.598Z,1.05
2022-08-08T09:50:03.480Z,1.15
2022-08-08T09:53:02.238Z,1.15
2022-08-08T09:56:05.705Z,1.20
2022-08-08T09:58:48.254Z,1.38
2022-08-08T10:01:59.689Z,0.98
2022-08-08T10:04:47.283Z,1.27
2022-08-08T10:07:26.078Z,1.10
2022-08-08T10:10:09.777Z,1.35
2022-08-08T10:12:53.448Z,0.95
2022-08-08T10:15:40.724Z,1.10
2022-08-08T10:18:43.825Z,1.13
2022-08-08T10:21:33.120Z,1.10
2022-08-08T10:24:35.261Z,1.05
2022-08-08T10:27:23.439Z,1.42
2022-08-08T10:30:16.722Z,1.05
2022-08-08T10:33:08.890Z,0.98
2022-08-08T10:36:09.234Z,0.98
2022-08-08T10:39:08.098Z,1.00
2022-08-08T10:42:13.151Z,1.25
2022-08-08T10:44:51.729Z,1.15
2022-08-08T10:47:43.843Z,1.13
2022-08-08T10:50:25.807Z,1.25
2022-08-08T10:53:20.704Z,1.23
2022-08-08T10:56:27.691Z,1.85
2022-08-08T10:59:14.068Z,1.50
2022-08-08T11:02:03.086Z,1.40
2022-08-08T11:04:39.113Z,1.02
2022-08-08T11:08:31.011Z,1.45
2022-08-08T11:10:34.897Z,0.95
2022-08-08T11:13:31.978Z,1.30
2022-08-08T11:16:33.183Z,2.97
2022-08-08T11:19:17.373Z,1.45
2022-08-08T11:22:00.774Z,1.30
2022-08-08T11:24:44.831Z,1.70
2022-08-08T11:30:20.152Z,1.55
2022-08-08T11:33:12.222Z,1.30
2022-08-08T11:35:55.518Z,1.30
2022-08-08T11:38:54.194Z,1.30
2022-08-08T11:41:39.316Z,1.52
2022-08-08T11:44:29.004Z,2.00
2022-08-08T11:47:12.961Z,1.90
2022-08-08T11:50:10.054Z,1.45
2022-08-08T11:52:52.400Z,1.65
2022-08-08T11:55:36.715Z,2.08
2022-08-08T11:58:21.891Z,2.30
2022-08-08T12:00:58.687Z,2.58
2022-08-08T12:03:36.942Z,2.85
2022-08-08T12:06:26.037Z,2.70
2022-08-08T12:09:56.995Z,3.47
2022-08-08T12:12:36.677Z,3.25
2022-08-08T12:15:15.458Z,3.30
2022-08-08T12:18:15.987Z,3.33
2022-08-08T12:21:00.127Z,2.92
2022-08-08T12:23:42.825Z,3.60
2022-08-08T12:26:38.755Z,3.20
2022-08-08T12:29:44.952Z,3.78
2022-08-08T12:32:31.133Z,3.63
2022-08-08T12:35:22.836Z,3.40
2022-08-08T12:38:18.117Z,4.43
2022-08-08T12:41:00.931Z,4.13
2022-08-08T12:43:46.464Z,4.57
2022-08-08T12:46:42.811Z,4.28
2022-08-08T12:49:45.134Z,4.32
2022-08-08T12:52:39.757Z,5.10
2022-08-08T12:55:32.102Z,5.45
2022-08-08T12:58:25.285Z,5.28
2022-08-08T13:01:24.731Z,4.97
2022-08-08T13:04:24.405Z,4.18
2022-08-08T13:08:02.229Z,4.97
2022-08-08T13:10:27.823Z,4.53
2022-08-08T13:13:14.090Z,4.80
2022-08-08T13:15:54.763Z,4.57
2022-08-08T13:18:32.592Z,4.32
2022-08-08T13:21:36.395Z,3.53
2022-08-08T13:24:42.407Z,4.25
2022-08-08T13:27:35.578Z,3.75
2022-08-08T13:30:16.048Z,4.57
2022-08-08T13:32:58.870Z,3.97
2022-08-08T13:35:38.751Z,4.32
2022-08-08T13:38:28.540Z,4.70
2022-08-08T13:41:16.437Z,4.72
2022-08-08T13:43:55.643Z,4.70
2022-08-08T13:46:30.805Z,4.88
2022-08-08T13:52:10.600Z,4.20
2022-08-08T13:54:52.720Z,3.65
2022-08-08T13:58:07.049Z,3.78
2022-08-08T14:00:21.441Z,4.50
2022-08-08T14:03:38.437Z,4.40
2022-08-08T14:06:33.981Z,3.95
2022-08-08T14:09:24.974Z,4.00
2022-08-08T14:11:59.968Z,3.85
2022-08-08T14:14:47.387Z,3.70
2022-08-08T14:17:58.422Z,3.75
2022-08-08T14:20:56.362Z,3.70
2022-08-08T14:24:04.715Z,3.58
2022-08-08T14:26:36.361Z,3.75
2022-08-08T14:29:28.577Z,4.18
2022-08-08T14:32:09.965Z,3.60
2022-08-08T14:35:05.783Z,3.85
2022-08-08T14:37:59.943Z,3.97
2022-08-08T14:40:47.528Z,4.45
2022-08-08T14:44:02.591Z,4.10
2022-08-08T14:46:42.638Z,4.13
2022-08-08T14:49:33.582Z,3.88
2022-08-08T14:52:28.005Z,4.10
2022-08-08T14:55:02.934Z,3.72
2022-08-08T14:58:02.735Z,3.90
2022-08-08T15:00:48.233Z,3.75
2022-08-08T15:06:16.570Z,3.28
2022-08-08T15:09:00.454Z,3.70
2022-08-08T15:11:53.552Z,3.25
2022-08-08T15:14:40.037Z,3.72
2022-08-08T15:17:16.192Z,2.80
2022-08-08T15:19:56.669Z,3.20
2022-08-08T15:22:34.751Z,2.75
2022-08-08T15:25:17.393Z,2.80
2022-08-08T15:28:34.146Z,2.40
2022-08-08T15:31:10.288Z,2.70
2022-08-08T15:34:06.997Z,2.25
2022-08-08T15:36:44.178Z,2.55
2022-08-08T15:39:21.720Z,2.72
2022-08-08T15:42:10.196Z,2.30
2022-08-08T15:44:43.547Z,2.10
2022-08-08T15:47:22.629Z,2.30
2022-08-08T15:49:57.434Z,2.33
2022-08-08T15:52:38.282Z,2.17
2022-08-08T15:55:14.583Z,2.63
2022-08-08T15:57:55.771Z,2.40
2022-08-08T16:00:36.821Z,2.65
2022-08-08T16:03:23.936Z,2.70
2022-08-08T16:06:08.194Z,2.67
2022-08-08T16:12:59.985Z,2.97
2022-08-08T16:13:12.039Z,3.50
2022-08-08T16:15:14.350Z,3.45
2022-08-08T16:18:11.262Z,3.17
2022-08-08T16:20:50.997Z,3.40
2022-08-08T16:23:21.554Z,3.22
2022-08-08T16:26:03.472Z,2.92
2022-08-08T16:28:43.134Z,3.35
2022-08-08T16:31:21.509Z,2.72
2022-08-08T16:34:08.878Z,2.97
2022-08-08T16:36:50.490Z,2.67
2022-08-08T16:39:59.772Z,3.30
2022-08-08T16:42:21.575Z,3.05
2022-08-08T16:46:37.653Z,2.88
2022-08-08T16:48:18.038Z,2.55
2022-08-08T16:51:01.820Z,2.78
2022-08-08T16:55:04.274Z,2.90
2022-08-08T16:57:01.646Z,2.60
2022-08-08T16:59:50.691Z,2.97
2022-08-08T17:02:38.538Z,3.10
2022-08-08T17:07:51.094Z,2.88
2022-08-08T17:10:21.934Z,2.60
2022-08-08T17:13:02.718Z,2.97
2022-08-08T17:15:52.735Z,3.08
2022-08-08T17:18:33.699Z,2.88
2022-08-08T17:21:11.905Z,2.88
2022-08-08T17:24:00.066Z,3.25
2022-08-08T17:26:53.207Z,3.15
2022-08-08T17:29:43.567Z,2.42
2022-08-08T17:34:34.934Z,3.05
2022-08-08T17:35:56.134Z,3.20
2022-08-08T17:38:34.421Z,2.90
2022-08-08T17:41:09.865Z,3.10
2022-08-08T17:44:01.165Z,3.10
2022-08-08T17:46:59.704Z,3.45
2022-08-08T17:49:43.865Z,2.80
2022-08-08T17:52:23.044Z,3.25
2022-08-08T17:55:05.394Z,3.58
2022-08-08T17:57:39.859Z,3.60
2022-08-08T18:00:21.408Z,3.92
2022-08-08T18:03:07.642Z,3.70
2022-08-08T18:05:47.938Z,4.35
2022-08-08T18:08:43.582Z,4.35
2022-08-08T18:11:29.540Z,4.35
2022-08-08T18:14:21.763Z,4.60
2022-08-08T18:17:03.106Z,4.35
2022-08-08T18:19:46.762Z,4.72
2022-08-08T18:23:04.955Z,4.90
2022-08-08T18:25:55.533Z,5.05
2022-08-08T18:28:54.006Z,5.97
2022-08-08T18:31:28.729Z,5.95
2022-08-08T18:34:12.181Z,6.30
2022-08-08T18:37:09.391Z,6.38
2022-08-08T18:39:53.444Z,6.03
2022-08-08T18:42:53.240Z,5.88
2022-08-08T18:46:00.451Z,6.05
2022-08-08T18:48:41.230Z,7.43
2022-08-08T18:51:40.561Z,7.22
2022-08-08T18:54:22.849Z,7.15
2022-08-08T18:57:42.051Z,8.68
2022-08-08T19:03:06.085Z,8.32
2022-08-08T19:05:51.699Z,8.90
2022-08-08T19:08:33.072Z,10.07
2022-08-08T19:11:17.324Z,9.13
2022-08-08T19:13:59.018Z,8.98
2022-08-08T19:16:41.443Z,10.07
2022-08-08T19:19:27.532Z,9.70
2022-08-08T19:22:21.887Z,12.10
2022-08-08T19:25:03.534Z,10.63
2022-08-08T19:28:04.160Z,11.68
2022-08-08T19:31:04.339Z,9.85
2022-08-08T19:34:04.337Z,9.35
2022-08-08T19:36:42.268Z,10.90
2022-08-08T19:39:23.315Z,11.30
2022-08-08T19:41:57.480Z,11.40
2022-08-08T19:44:42.513Z,10.88
2022-08-08T19:47:27.356Z,10.88
2022-08-08T19:50:04.960Z,10.02
2022-08-08T19:52:55.064Z,11.00
2022-08-08T19:55:47.189Z,9.65
2022-08-08T19:58:29.355Z,9.55
2022-08-08T20:01:17.370Z,8.27
2022-08-08T20:04:12.914Z,8.38
2022-08-08T20:06:56.970Z,8.50
2022-08-08T20:09:45.251Z,8.10
2022-08-08T20:12:35.937Z,7.03
2022-08-08T20:15:16.600Z,7.22
2022-08-08T20:17:52.835Z,7.00
2022-08-08T20:20:41.109Z,7.40
2022-08-08T20:23:16.737Z,7.57
2022-08-08T20:25:57.541Z,7.55
2022-08-08T20:28:32.699Z,8.13
2022-08-08T20:31:19.137Z,7.15
2022-08-08T20:34:29.309Z,7.10
2022-08-08T20:37:06.150Z,7.47
2022-08-08T20:39:50.885Z,7.85
2022-08-08T20:42:38.670Z,7.53
2022-08-08T20:45:54.990Z,7.25
2022-08-08T20:48:29.600Z,6.68
2022-08-08T20:50:59.601Z,7.32
2022-08-08T20:54:00.960Z,7.60
2022-08-08T20:57:04.402Z,6.95
2022-08-08T21:00:01.123Z,7.65
2022-08-08T21:02:34.299Z,7.13
2022-08-08T21:05:23.268Z,6.50
2022-08-08T21:08:36.834Z,6.82
2022-08-08T21:11:06.812Z,7.55
2022-08-08T21:13:48.024Z,6.65
2022-08-08T21:16:33.739Z,6.70
2022-08-08T21:19:10.772Z,6.57
2022-08-08T21:21:42.667Z,7.78
2022-08-08T21:24:30.363Z,6.72
2022-08-08T21:27:05.284Z,6.15
2022-08-08T21:30:02.593Z,6.63
2022-08-08T21:32:37.382Z,6.32
2022-08-08T21:36:17.732Z,7.80
2022-08-08T21:38:16.055Z,6.95
2022-08-08T21:40:58.715Z,7.57
2022-08-08T21:43:35.640Z,6.22
2022-08-08T21:48:08.234Z,6.38
2022-08-08T21:49:31.166Z,7.38
2022-08-08T21:54:23.309Z,5.88
2022-08-08T21:56:24.565Z,5.80
2022-08-08T21:58:37.825Z,6.40
2022-08-08T22:01:27.836Z,6.63
2022-08-08T22:04:32.709Z,7.03
2022-08-08T22:07:08.824Z,6.20
2022-08-08T22:09:46.744Z,6.22
2022-08-08T22:12:28.748Z,6.28
2022-08-08T22:15:07.660Z,7.57
2022-08-08T22:17:49.454Z,6.38
2022-08-08T22:20:28.322Z,7.10
2022-08-08T22:23:12.054Z,8.25
2022-08-08T22:26:27.110Z,7.18
2022-08-08T22:29:57.008Z,7.93
2022-08-08T22:32:03.527Z,9.32
2022-08-08T22:34:39.895Z,8.85
2022-08-08T22:37:48.890Z,10.55
2022-08-08T22:40:26.760Z,10.48
2022-08-08T22:43:12.762Z,10.85
2022-08-08T22:46:01.000Z,10.48
2022-08-08T22:48:40.037Z,11.98
2022-08-08T22:51:21.952Z,11.85
2022-08-08T22:54:34.034Z,13.48
2022-08-08T22:57:11.641Z,12.02
2022-08-08T23:00:01.093Z,13.05
2022-08-08T23:02:44.679Z,12.60
2022-08-08T23:05:28.039Z,11.80
2022-08-08T23:08:02.707Z,10.43
2022-08-08T23:10:36.720Z,11.52
2022-08-08T23:13:12.772Z,11.45
2022-08-08T23:16:38.242Z,9.98
2022-08-08T23:19:09.676Z,10.48
2022-08-08T23:21:51.909Z,8.88
2022-08-08T23:24:41.463Z,8.57
2022-08-08T23:27:39.258Z,9.18
2022-08-08T23:30:32.763Z,9.02
2022-08-08T23:33:35.952Z,9.25
2022-08-08T23:36:24.269Z,9.00
2022-08-08T23:39:07.379Z,8.50
2022-08-08T23:41:49.576Z,8.50
2022-08-08T23:44:36.580Z,8.70
2022-08-08T23:49:07.772Z,9.05
2022-08-08T23:53:10.069Z,8.27
2022-08-08T23:55:58.568Z,10.32
2022-08-08T23:58:39.122Z,8.70
